• Join FlightAware (Why Join?)
  • Login
  • US Flag 
12:25PM EDT


 

Airport Tracker/Info


-or-


 

Live Flight TrackerFlight Track Log ✈ CHQ6101 ✈ 25-04-2014 ✈ KLGA - KBGR

Flight Track Log - Related Links

Times and Time Zones

All times are in EDT time to prevent confusion due to time zone crossing. See the CHQ6101 flight status page for this flight to view local times or setup timezone preferences in your user account.

Time Position Orientation Groundspeed Altitude Reporting Facility
EDT Latitude Longitude Course Direction KTS MPH feet Rate Location/Type
02:04PM 40.7422 -73.8422 21° North 170 196 25,000  Level Boston Center
02:05PM 40.7486 -73.7831 82° East 236 272 3,400 -9,480 Descending Boston Center
02:06PM 40.8083 -73.7428 27° Northeast 240 276 5,600 2,340 Climbing Boston Center
02:07PM 40.8850 -73.6842 30° Northeast 264 304 8,200 2,160 Climbing Boston Center
02:08PM 41.2367 -73.4929 33° Northeast  Level FlightAware Approximate
02:08PM 40.9542 -73.6308 30° Northeast 284 327 10,100  Level Boston Center
02:09PM 41.3330 -73.4225 27° Northeast  Level FlightAware Approximate
02:09PM 41.0350 -73.5717 29° Northeast 302 348 12,000  Level Boston Center
02:10PM 40.8516 -73.7992 21° North  Level FlightAware Approximate
02:10PM 41.1128 -73.5122 30° Northeast 321 369 13,600  Level Boston Center
02:11PM 41.1939 -73.4500 30° Northeast 335 386 15,000 1,440 Climbing Boston Center
02:12PM 41.2878 -73.3808 29° Northeast 353 406 16,600 1,680 Climbing Boston Center
02:13PM 41.3725 -73.3206 28° Northeast 355 409 18,500 1,740 Climbing Boston Center
02:15PM 41.4486 -73.2636 29° Northeast 355 409 20,200 1,560 Climbing Boston Center
02:16PM 41.5522 -73.2447 North 347 399 21,700 1,140 Climbing Boston Center
02:17PM 41.6514 -73.2494 358° North 353 406 22,600 900 Climbing Boston Center
02:18PM 41.7553 -73.2572 357° North 368 423 23,600 960 Climbing Boston Center
02:19PM 41.8633 -73.2647 357° North 382 440 24,600 660 Climbing Boston Center
02:20PM 41.9731 -73.2733 357° North 390 449 25,000 180 Climbing Boston Center
02:21PM 42.0900 -73.2794 358° North 416 479 25,000  Level Boston Center
02:22PM 42.2308 -73.2906 357° North 420 483 25,000  Level Boston Center
02:23PM 42.3478 -73.2986 357° North 420 483 25,000  Level Boston Center
02:24PM 42.4656 -73.3061 357° North 420 483 25,000  Level Boston Center
02:25PM 42.5822 -73.3147 357° North 419 482 25,000  Level Boston Center
02:26PM 42.6964 -73.2856 11° North 423 487 25,000  Level Boston Center
02:27PM 42.7778 -73.1631 48° Northeast 438 504 25,000  Level Boston Center
02:28PM 42.8478 -73.0247 55° Northeast 438 504 25,000  Level Boston Center
02:29PM 42.9122 -72.8969 55° Northeast 439 505 25,000  Level Boston Center
02:30PM 42.9942 -72.7328 56° Northeast 439 505 25,000  Level Boston Center
02:31PM 43.0586 -72.6014 56° Northeast 439 505 25,000  Level Boston Center
02:32PM 43.1267 -72.4625 56° Northeast 439 505 25,000  Level Boston Center
02:33PM 43.1917 -72.3308 56° Northeast 440 506 25,000  Level Boston Center
02:34PM 43.2742 -72.1633 56° Northeast 441 507 25,000  Level Boston Center
02:35PM 43.3417 -72.0222 57° Northeast 443 510 25,000  Level Boston Center
02:36PM 43.4097 -71.8822 56° Northeast 443 510 25,000  Level Boston Center
02:37PM 43.4778 -71.7406 56° Northeast 444 511 25,000  Level Boston Center
02:38PM 43.5458 -71.5992 56° Northeast 443 510 25,000  Level Boston Center
02:39PM 43.6128 -71.4581 57° Northeast 442 509 25,000  Level Boston Center
02:40PM 43.6842 -71.3081 57° Northeast 443 510 25,000  Level Boston Center
02:41PM 43.7506 -71.1644 57° Northeast 443 510 25,000  Level Boston Center
02:42PM 43.8186 -71.0225 56° Northeast 442 509 25,000 -240 Level Boston Center
02:43PM 43.8867 -70.8797 56° Northeast 442 509 24,600 -1,080 Descending Boston Center
02:44PM 43.9619 -70.7142 58° Northeast 422 486 22,900 -1,500 Descending Boston Center
02:45PM 44.0225 -70.5861 57° Northeast 401 461 21,600 -1,320 Descending Boston Center
02:46PM 44.0781 -70.4608 58° Northeast 383 441 20,200 -1,380 Descending Boston Center
02:47PM 44.1392 -70.3297 57° Northeast 372 428 18,800 -1,380 Descending Boston Center
02:48PM 44.1978 -70.2017 57° Northeast 389 448 17,400 -1,320 Descending Boston Center
02:49PM 44.2572 -70.0697 58° Northeast 397 457 16,100 -1,320 Descending Boston Center
02:50PM 44.3144 -69.9422 58° Northeast 392 451 14,700 -1,380 Descending Boston Center
02:51PM 44.3750 -69.8067 58° Northeast 386 444 13,300 -1,380 Descending Boston Center
02:52PM 44.4217 -69.6867 61° Northeast 351 404 11,900 -1,140 Descending Boston Center
02:54PM 44.4619 -69.5631 65° Northeast 341 392 11,000 -1,080 Descending Boston Center
02:55PM 44.4947 -69.4539 67° East 309 356 9,700 -1,620 Descending Boston Center
02:56PM 44.5272 -69.3522 66° East 292 336 7,800 -1,860 Descending Boston Center
02:57PM 44.5564 -69.2556 67° East 277 319 6,000 -1,680 Descending Boston Center
02:58PM 44.5833 -69.1647 67° East 258 297 4,400 -1,140 Descending Boston Center
02:59PM 44.6114 -69.0742 66° East 256 295 3,700 -660 Descending Boston Center
03:00PM 44.6375 -68.9892 67° East 244 281 3,100 -420 Descending Boston Center
03:01PM 44.6694 -68.8925 65° Northeast 232 267 2,900 -300 Descending Boston Center
03:02PM 44.7044 -68.8197 56° Northeast 228 262 2,500 -600 Descending Boston Center
03:03PM 44.7428 -68.7783 37° Northeast 182 209 1,700 -900 Descending Boston Center
03:04PM 44.7803 -68.7903 347° North 165 190 700 -720 Descending Boston Center
03:05PM 44.8064 -68.8261 316° Northwest 156 180 300 -420 Descending Boston Center